sensor_id;sensor_type;location;lat;lon;timestamp;temperature;humidity
6986;DHT22;3533;51.246;6.850;2022-12-18T00:01:33;18.50;32.30
6986;DHT22;3533;51.246;6.850;2022-12-18T00:04:00;18.50;32.30
6986;DHT22;3533;51.246;6.850;2022-12-18T00:06:27;18.50;32.30
6986;DHT22;3533;51.246;6.850;2022-12-18T00:08:54;18.50;32.30
6986;DHT22;3533;51.246;6.850;2022-12-18T00:11:22;18.50;32.30
6986;DHT22;3533;51.246;6.850;2022-12-18T00:13:48;18.50;32.30
6986;DHT22;3533;51.246;6.850;2022-12-18T00:16:19;18.50;33.10
6986;DHT22;3533;51.246;6.850;2022-12-18T00:18:46;18.50;32.30
6986;DHT22;3533;51.246;6.850;2022-12-18T00:21:13;18.50;32.30
6986;DHT22;3533;51.246;6.850;2022-12-18T00:23:40;18.50;32.40
6986;DHT22;3533;51.246;6.850;2022-12-18T00:26:09;18.50;32.30
6986;DHT22;3533;51.246;6.850;2022-12-18T00:28:35;18.50;32.30
6986;DHT22;3533;51.246;6.850;2022-12-18T00:31:06;18.40;32.20
6986;DHT22;3533;51.246;6.850;2022-12-18T00:33:32;18.50;32.40
6986;DHT22;3533;51.246;6.850;2022-12-18T00:36:05;18.40;32.20
6986;DHT22;3533;51.246;6.850;2022-12-18T00:38:32;18.40;32.20
6986;DHT22;3533;51.246;6.850;2022-12-18T00:40:57;18.40;32.20
6986;DHT22;3533;51.246;6.850;2022-12-18T00:43:23;18.40;32.30
6986;DHT22;3533;51.246;6.850;2022-12-18T00:45:48;18.50;32.30
6986;DHT22;3533;51.246;6.850;2022-12-18T00:48:14;18.40;32.20
6986;DHT22;3533;51.246;6.850;2022-12-18T00:50:39;18.40;32.20
6986;DHT22;3533;51.246;6.850;2022-12-18T00:53:05;18.40;32.20
6986;DHT22;3533;51.246;6.850;2022-12-18T00:55:30;18.40;32.20
6986;DHT22;3533;51.246;6.850;2022-12-18T00:57:56;18.40;32.30
6986;DHT22;3533;51.246;6.850;2022-12-18T01:00:22;18.40;32.30
6986;DHT22;3533;51.246;6.850;2022-12-18T01:02:48;18.40;32.20
6986;DHT22;3533;51.246;6.850;2022-12-18T01:05:14;18.40;32.20
6986;DHT22;3533;51.246;6.850;2022-12-18T01:07:39;18.40;32.30
6986;DHT22;3533;51.246;6.850;2022-12-18T01:10:05;18.40;32.20
6986;DHT22;3533;51.246;6.850;2022-12-18T01:12:31;18.40;32.20
6986;DHT22;3533;51.246;6.850;2022-12-18T01:14:57;18.40;32.30
6986;DHT22;3533;51.246;6.850;2022-12-18T01:17:23;18.40;32.20
6986;DHT22;3533;51.246;6.850;2022-12-18T01:19:48;18.40;33.00
6986;DHT22;3533;51.246;6.850;2022-12-18T01:22:14;18.40;32.20
6986;DHT22;3533;51.246;6.850;2022-12-18T01:24:40;18.40;32.30
6986;DHT22;3533;51.246;6.850;2022-12-18T01:27:05;18.40;32.30
6986;DHT22;3533;51.246;6.850;2022-12-18T01:29:31;18.40;32.20
6986;DHT22;3533;51.246;6.850;2022-12-18T01:31:57;18.40;32.20
6986;DHT22;3533;51.246;6.850;2022-12-18T01:34:23;18.40;32.20
6986;DHT22;3533;51.246;6.850;2022-12-18T01:36:49;18.40;32.20
6986;DHT22;3533;51.246;6.850;2022-12-18T01:39:17;18.40;32.20
6986;DHT22;3533;51.246;6.850;2022-12-18T01:41:44;18.40;32.30
6986;DHT22;3533;51.246;6.850;2022-12-18T01:49:59;18.40;32.30
6986;DHT22;3533;51.246;6.850;2022-12-18T01:52:28;18.40;32.30
6986;DHT22;3533;51.246;6.850;2022-12-18T01:54:55;18.40;32.30
6986;DHT22;3533;51.246;6.850;2022-12-18T01:57:22;18.40;32.50
6986;DHT22;3533;51.246;6.850;2022-12-18T01:59:51;18.40;32.20
6986;DHT22;3533;51.246;6.850;2022-12-18T02:02:19;18.40;32.20
6986;DHT22;3533;51.246;6.850;2022-12-18T02:04:45;18.40;32.40
6986;DHT22;3533;51.246;6.850;2022-12-18T02:08:03;18.40;32.20
6986;DHT22;3533;51.246;6.850;2022-12-18T02:10:17;18.40;32.20
6986;DHT22;3533;51.246;6.850;2022-12-18T02:12:52;18.40;32.20
6986;DHT22;3533;51.246;6.850;2022-12-18T02:15:32;18.40;32.20
6986;DHT22;3533;51.246;6.850;2022-12-18T02:18:09;18.40;32.70
6986;DHT22;3533;51.246;6.850;2022-12-18T02:20:49;18.40;32.20
6986;DHT22;3533;51.246;6.850;2022-12-18T02:28:42;18.40;32.30
6986;DHT22;3533;51.246;6.850;2022-12-18T02:31:13;18.40;32.20
6986;DHT22;3533;51.246;6.850;2022-12-18T02:33:40;18.40;32.20
6986;DHT22;3533;51.246;6.850;2022-12-18T02:36:08;18.40;33.00
6986;DHT22;3533;51.246;6.850;2022-12-18T02:38:35;18.40;32.10
6986;DHT22;3533;51.246;6.850;2022-12-18T02:41:02;18.40;32.10
6986;DHT22;3533;51.246;6.850;2022-12-18T02:43:29;18.40;32.10
6986;DHT22;3533;51.246;6.850;2022-12-18T02:45:59;18.40;32.20
6986;DHT22;3533;51.246;6.850;2022-12-18T02:48:35;18.40;32.10
6986;DHT22;3533;51.246;6.850;2022-12-18T02:51:31;18.40;32.10
6986;DHT22;3533;51.246;6.850;2022-12-18T02:54:06;18.40;31.90
6986;DHT22;3533;51.246;6.850;2022-12-18T02:56:48;18.40;32.00
6986;DHT22;3533;51.246;6.850;2022-12-18T02:59:19;18.40;32.00
6986;DHT22;3533;51.246;6.850;2022-12-18T03:02:17;18.40;32.10
6986;DHT22;3533;51.246;6.850;2022-12-18T03:05:31;18.40;32.10
6986;DHT22;3533;51.246;6.850;2022-12-18T03:07:49;18.40;32.20
6986;DHT22;3533;51.246;6.850;2022-12-18T03:10:21;18.40;32.10
6986;DHT22;3533;51.246;6.850;2022-12-18T03:12:54;18.40;32.20
6986;DHT22;3533;51.246;6.850;2022-12-18T03:15:27;18.40;32.20
6986;DHT22;3533;51.246;6.850;2022-12-18T03:18:06;18.40;32.20
6986;DHT22;3533;51.246;6.850;2022-12-18T03:20:34;18.40;32.00
6986;DHT22;3533;51.246;6.850;2022-12-18T03:23:11;18.40;32.20
6986;DHT22;3533;51.246;6.850;2022-12-18T03:25:40;18.40;32.20
6986;DHT22;3533;51.246;6.850;2022-12-18T03:28:12;18.40;32.20
6986;DHT22;3533;51.246;6.850;2022-12-18T03:30:39;18.40;32.00
6986;DHT22;3533;51.246;6.850;2022-12-18T03:33:23;18.40;32.00
6986;DHT22;3533;51.246;6.850;2022-12-18T03:35:51;18.40;32.00
6986;DHT22;3533;51.246;6.850;2022-12-18T03:38:16;18.40;31.90
6986;DHT22;3533;51.246;6.850;2022-12-18T03:46:30;18.40;31.90
6986;DHT22;3533;51.246;6.850;2022-12-18T03:49:16;18.40;31.80
6986;DHT22;3533;51.246;6.850;2022-12-18T03:52:03;18.40;31.80
6986;DHT22;3533;51.246;6.850;2022-12-18T03:54:30;18.40;31.80
6986;DHT22;3533;51.246;6.850;2022-12-18T03:57:01;18.40;31.80
6986;DHT22;3533;51.246;6.850;2022-12-18T03:59:29;18.40;31.70
6986;DHT22;3533;51.246;6.850;2022-12-18T04:01:57;18.40;31.80
6986;DHT22;3533;51.246;6.850;2022-12-18T04:04:24;18.40;31.80
6986;DHT22;3533;51.246;6.850;2022-12-18T04:06:51;18.40;31.80
6986;DHT22;3533;51.246;6.850;2022-12-18T04:09:18;18.40;31.80
6986;DHT22;3533;51.246;6.850;2022-12-18T04:11:43;18.40;31.70
6986;DHT22;3533;51.246;6.850;2022-12-18T04:14:09;18.40;31.70
6986;DHT22;3533;51.246;6.850;2022-12-18T04:16:35;18.40;31.70
6986;DHT22;3533;51.246;6.850;2022-12-18T04:19:01;18.40;31.80
6986;DHT22;3533;51.246;6.850;2022-12-18T04:21:26;18.40;31.70
6986;DHT22;3533;51.246;6.850;2022-12-18T04:23:52;18.40;31.70
6986;DHT22;3533;51.246;6.850;2022-12-18T04:26:17;18.40;31.70
6986;DHT22;3533;51.246;6.850;2022-12-18T04:28:43;18.40;31.70
6986;DHT22;3533;51.246;6.850;2022-12-18T04:31:08;18.40;31.70
6986;DHT22;3533;51.246;6.850;2022-12-18T04:33:34;18.40;31.70
6986;DHT22;3533;51.246;6.850;2022-12-18T04:35:59;18.40;31.70
6986;DHT22;3533;51.246;6.850;2022-12-18T04:38:25;18.40;31.70
6986;DHT22;3533;51.246;6.850;2022-12-18T04:40:50;18.40;31.70
6986;DHT22;3533;51.246;6.850;2022-12-18T04:43:16;18.40;31.60
6986;DHT22;3533;51.246;6.850;2022-12-18T04:45:42;18.40;31.70
6986;DHT22;3533;51.246;6.850;2022-12-18T04:48:07;18.40;31.70
6986;DHT22;3533;51.246;6.850;2022-12-18T04:50:33;18.40;31.70
6986;DHT22;3533;51.246;6.850;2022-12-18T04:52:59;18.40;31.70
6986;DHT22;3533;51.246;6.850;2022-12-18T04:55:24;18.40;31.70
6986;DHT22;3533;51.246;6.850;2022-12-18T04:57:50;18.40;31.60
6986;DHT22;3533;51.246;6.850;2022-12-18T05:00:16;18.40;31.70
6986;DHT22;3533;51.246;6.850;2022-12-18T05:02:41;18.40;31.70
6986;DHT22;3533;51.246;6.850;2022-12-18T05:05:07;18.40;31.60
6986;DHT22;3533;51.246;6.850;2022-12-18T05:07:33;18.40;31.60
6986;DHT22;3533;51.246;6.850;2022-12-18T05:09:58;18.40;31.60
6986;DHT22;3533;51.246;6.850;2022-12-18T05:12:24;18.40;31.70
6986;DHT22;3533;51.246;6.850;2022-12-18T05:14:50;18.40;31.60
6986;DHT22;3533;51.246;6.850;2022-12-18T05:17:16;18.40;31.70
6986;DHT22;3533;51.246;6.850;2022-12-18T05:19:41;18.50;31.70
6986;DHT22;3533;51.246;6.850;2022-12-18T05:22:07;18.50;31.70
6986;DHT22;3533;51.246;6.850;2022-12-18T05:24:33;18.40;31.60
6986;DHT22;3533;51.246;6.850;2022-12-18T05:26:58;18.50;31.60
6986;DHT22;3533;51.246;6.850;2022-12-18T05:29:24;18.50;31.60
6986;DHT22;3533;51.246;6.850;2022-12-18T05:31:50;18.50;31.60
6986;DHT22;3533;51.246;6.850;2022-12-18T05:34:15;18.50;31.60
6986;DHT22;3533;51.246;6.850;2022-12-18T05:36:41;18.50;31.60
6986;DHT22;3533;51.246;6.850;2022-12-18T05:39:07;18.50;31.60
6986;DHT22;3533;51.246;6.850;2022-12-18T05:41:32;18.50;31.60
6986;DHT22;3533;51.246;6.850;2022-12-18T05:43:58;18.50;31.60
6986;DHT22;3533;51.246;6.850;2022-12-18T05:46:24;18.50;31.60
6986;DHT22;3533;51.246;6.850;2022-12-18T05:48:50;18.50;31.50
6986;DHT22;3533;51.246;6.850;2022-12-18T05:51:17;18.50;31.50
6986;DHT22;3533;51.246;6.850;2022-12-18T05:53:43;18.50;31.60
6986;DHT22;3533;51.246;6.850;2022-12-18T05:56:12;18.50;31.50
6986;DHT22;3533;51.246;6.850;2022-12-18T05:58:38;18.50;31.50
6986;DHT22;3533;51.246;6.850;2022-12-18T06:01:13;18.50;31.50
6986;DHT22;3533;51.246;6.850;2022-12-18T06:03:40;18.50;31.60
6986;DHT22;3533;51.246;6.850;2022-12-18T06:06:17;18.50;31.60
6986;DHT22;3533;51.246;6.850;2022-12-18T06:08:43;18.50;31.60
6986;DHT22;3533;51.246;6.850;2022-12-18T06:11:08;18.50;31.60
6986;DHT22;3533;51.246;6.850;2022-12-18T06:13:34;18.50;31.60
6986;DHT22;3533;51.246;6.850;2022-12-18T06:16:02;18.50;31.60
6986;DHT22;3533;51.246;6.850;2022-12-18T06:18:28;18.50;31.70
6986;DHT22;3533;51.246;6.850;2022-12-18T06:20:55;18.50;31.60
6986;DHT22;3533;51.246;6.850;2022-12-18T06:23:21;18.50;31.60
6986;DHT22;3533;51.246;6.850;2022-12-18T06:25:47;18.50;31.60
6986;DHT22;3533;51.246;6.850;2022-12-18T06:28:12;18.50;31.60
6986;DHT22;3533;51.246;6.850;2022-12-18T06:30:38;18.50;31.70
6986;DHT22;3533;51.246;6.850;2022-12-18T06:33:03;18.50;31.60
6986;DHT22;3533;51.246;6.850;2022-12-18T06:35:29;18.50;31.60
6986;DHT22;3533;51.246;6.850;2022-12-18T06:37:54;18.50;31.60
6986;DHT22;3533;51.246;6.850;2022-12-18T06:40:20;18.50;31.60
6986;DHT22;3533;51.246;6.850;2022-12-18T06:42:45;18.50;31.60
6986;DHT22;3533;51.246;6.850;2022-12-18T06:45:11;18.50;31.60
6986;DHT22;3533;51.246;6.850;2022-12-18T06:47:37;18.50;31.50
6986;DHT22;3533;51.246;6.850;2022-12-18T06:50:02;18.50;31.50
6986;DHT22;3533;51.246;6.850;2022-12-18T06:52:28;18.50;31.60
6986;DHT22;3533;51.246;6.850;2022-12-18T06:54:53;18.50;31.60
6986;DHT22;3533;51.246;6.850;2022-12-18T06:57:19;18.50;31.50
6986;DHT22;3533;51.246;6.850;2022-12-18T06:59:44;18.50;32.30
6986;DHT22;3533;51.246;6.850;2022-12-18T07:02:11;18.50;31.50
6986;DHT22;3533;51.246;6.850;2022-12-18T07:04:37;18.50;31.50
6986;DHT22;3533;51.246;6.850;2022-12-18T07:07:03;18.50;31.50
6986;DHT22;3533;51.246;6.850;2022-12-18T07:09:28;18.50;31.50
6986;DHT22;3533;51.246;6.850;2022-12-18T07:11:54;18.50;31.50
6986;DHT22;3533;51.246;6.850;2022-12-18T07:14:19;18.50;31.50
6986;DHT22;3533;51.246;6.850;2022-12-18T07:16:45;18.50;31.50
6986;DHT22;3533;51.246;6.850;2022-12-18T07:19:10;18.50;31.50
6986;DHT22;3533;51.246;6.850;2022-12-18T07:21:36;18.50;31.50
6986;DHT22;3533;51.246;6.850;2022-12-18T07:24:01;18.50;31.50
6986;DHT22;3533;51.246;6.850;2022-12-18T07:26:27;18.50;31.50
6986;DHT22;3533;51.246;6.850;2022-12-18T07:28:55;18.50;31.40
6986;DHT22;3533;51.246;6.850;2022-12-18T07:31:21;18.50;31.50
6986;DHT22;3533;51.246;6.850;2022-12-18T07:33:47;18.50;31.50
6986;DHT22;3533;51.246;6.850;2022-12-18T07:36:13;18.50;31.40
6986;DHT22;3533;51.246;6.850;2022-12-18T07:38:39;18.50;31.40
6986;DHT22;3533;51.246;6.850;2022-12-18T07:41:09;18.50;31.40
6986;DHT22;3533;51.246;6.850;2022-12-18T07:43:36;18.50;31.40
6986;DHT22;3533;51.246;6.850;2022-12-18T07:46:02;18.50;32.00
6986;DHT22;3533;51.246;6.850;2022-12-18T07:48:28;18.50;31.50
6986;DHT22;3533;51.246;6.850;2022-12-18T07:50:59;18.50;31.40
6986;DHT22;3533;51.246;6.850;2022-12-18T07:53:25;18.50;31.50
6986;DHT22;3533;51.246;6.850;2022-12-18T07:55:55;18.50;31.50
6986;DHT22;3533;51.246;6.850;2022-12-18T07:58:21;18.50;31.50
6986;DHT22;3533;51.246;6.850;2022-12-18T08:00:47;18.50;31.50
6986;DHT22;3533;51.246;6.850;2022-12-18T08:03:12;18.50;31.50
6986;DHT22;3533;51.246;6.850;2022-12-18T08:05:38;18.50;31.60
6986;DHT22;3533;51.246;6.850;2022-12-18T08:08:03;18.50;31.50
6986;DHT22;3533;51.246;6.850;2022-12-18T08:10:29;18.50;31.50
6986;DHT22;3533;51.246;6.850;2022-12-18T08:12:55;18.50;31.50
6986;DHT22;3533;51.246;6.850;2022-12-18T08:15:20;18.50;31.50
6986;DHT22;3533;51.246;6.850;2022-12-18T08:17:46;18.50;31.50
6986;DHT22;3533;51.246;6.850;2022-12-18T08:20:11;18.50;31.50
6986;DHT22;3533;51.246;6.850;2022-12-18T08:22:39;18.50;31.50
6986;DHT22;3533;51.246;6.850;2022-12-18T08:25:05;18.50;31.50
6986;DHT22;3533;51.246;6.850;2022-12-18T08:27:30;18.50;31.50
6986;DHT22;3533;51.246;6.850;2022-12-18T08:29:57;18.50;31.50
6986;DHT22;3533;51.246;6.850;2022-12-18T08:32:24;18.50;31.50
6986;DHT22;3533;51.246;6.850;2022-12-18T08:34:49;18.50;31.50
6986;DHT22;3533;51.246;6.850;2022-12-18T08:37:15;18.50;31.50
6986;DHT22;3533;51.246;6.850;2022-12-18T08:39:40;18.50;31.50
6986;DHT22;3533;51.246;6.850;2022-12-18T08:42:06;18.50;31.50
6986;DHT22;3533;51.246;6.850;2022-12-18T08:44:50;18.50;31.50
6986;DHT22;3533;51.246;6.850;2022-12-18T08:47:15;18.50;31.50
6986;DHT22;3533;51.246;6.850;2022-12-18T08:49:41;18.50;31.50
6986;DHT22;3533;51.246;6.850;2022-12-18T08:52:07;18.50;31.60
6986;DHT22;3533;51.246;6.850;2022-12-18T08:54:32;18.50;32.30
6986;DHT22;3533;51.246;6.850;2022-12-18T08:56:57;18.50;31.60
6986;DHT22;3533;51.246;6.850;2022-12-18T08:59:23;18.50;31.50
6986;DHT22;3533;51.246;6.850;2022-12-18T09:01:49;18.50;31.50
6986;DHT22;3533;51.246;6.850;2022-12-18T09:04:15;18.50;31.50
6986;DHT22;3533;51.246;6.850;2022-12-18T09:06:41;18.50;31.50
6986;DHT22;3533;51.246;6.850;2022-12-18T09:09:06;18.50;31.40
6986;DHT22;3533;51.246;6.850;2022-12-18T09:11:32;18.50;31.40
6986;DHT22;3533;51.246;6.850;2022-12-18T09:14:00;18.50;31.50
6986;DHT22;3533;51.246;6.850;2022-12-18T09:16:27;18.50;31.50
6986;DHT22;3533;51.246;6.850;2022-12-18T09:18:56;18.50;31.50
6986;DHT22;3533;51.246;6.850;2022-12-18T09:21:26;18.50;31.50
6986;DHT22;3533;51.246;6.850;2022-12-18T09:23:54;18.50;31.60
6986;DHT22;3533;51.246;6.850;2022-12-18T09:26:20;18.50;31.50
6986;DHT22;3533;51.246;6.850;2022-12-18T09:28:46;18.50;31.60
6986;DHT22;3533;51.246;6.850;2022-12-18T09:31:15;18.50;31.50
6986;DHT22;3533;51.246;6.850;2022-12-18T09:33:41;18.60;31.50
6986;DHT22;3533;51.246;6.850;2022-12-18T09:36:09;18.60;31.60
6986;DHT22;3533;51.246;6.850;2022-12-18T09:38:35;18.50;31.50
6986;DHT22;3533;51.246;6.850;2022-12-18T09:43:54;18.50;31.50
6986;DHT22;3533;51.246;6.850;2022-12-18T09:46:30;18.50;31.60
6986;DHT22;3533;51.246;6.850;2022-12-18T09:49:00;18.50;31.50
6986;DHT22;3533;51.246;6.850;2022-12-18T09:51:30;18.50;31.60
6986;DHT22;3533;51.246;6.850;2022-12-18T09:54:01;18.50;31.60
6986;DHT22;3533;51.246;6.850;2022-12-18T09:56:35;18.50;31.60
6986;DHT22;3533;51.246;6.850;2022-12-18T09:59:04;18.50;31.70
6986;DHT22;3533;51.246;6.850;2022-12-18T10:01:31;18.60;31.70
6986;DHT22;3533;51.246;6.850;2022-12-18T10:03:57;18.60;31.60
6986;DHT22;3533;51.246;6.850;2022-12-18T10:06:51;18.60;31.60
6986;DHT22;3533;51.246;6.850;2022-12-18T10:10:01;18.60;31.60
6986;DHT22;3533;51.246;6.850;2022-12-18T10:14:56;18.60;31.60
6986;DHT22;3533;51.246;6.850;2022-12-18T10:17:40;18.60;31.60
6986;DHT22;3533;51.246;6.850;2022-12-18T10:20:21;18.60;31.60
6986;DHT22;3533;51.246;6.850;2022-12-18T10:23:18;18.60;31.70
6986;DHT22;3533;51.246;6.850;2022-12-18T10:26:06;18.60;31.70
6986;DHT22;3533;51.246;6.850;2022-12-18T10:28:35;18.70;31.80
6986;DHT22;3533;51.246;6.850;2022-12-18T10:31:01;18.60;31.70
6986;DHT22;3533;51.246;6.850;2022-12-18T10:33:31;18.70;31.80
6986;DHT22;3533;51.246;6.850;2022-12-18T10:35:57;18.70;31.80
6986;DHT22;3533;51.246;6.850;2022-12-18T10:38:30;18.70;31.90
6986;DHT22;3533;51.246;6.850;2022-12-18T10:43:44;18.70;31.90
6986;DHT22;3533;51.246;6.850;2022-12-18T10:48:53;18.70;31.90
6986;DHT22;3533;51.246;6.850;2022-12-18T10:51:30;18.70;31.80
6986;DHT22;3533;51.246;6.850;2022-12-18T10:54:13;18.70;31.80
6986;DHT22;3533;51.246;6.850;2022-12-18T10:56:40;18.80;31.90
6986;DHT22;3533;51.246;6.850;2022-12-18T10:59:11;18.70;31.80
6986;DHT22;3533;51.246;6.850;2022-12-18T11:04:20;18.70;31.90
6986;DHT22;3533;51.246;6.850;2022-12-18T11:09:30;18.80;31.80
6986;DHT22;3533;51.246;6.850;2022-12-18T11:12:02;18.80;31.80
6986;DHT22;3533;51.246;6.850;2022-12-18T11:14:42;18.80;31.90
6986;DHT22;3533;51.246;6.850;2022-12-18T11:17:19;18.80;31.80
6986;DHT22;3533;51.246;6.850;2022-12-18T11:19:53;18.80;31.80
6986;DHT22;3533;51.246;6.850;2022-12-18T11:22:22;18.80;31.80
6986;DHT22;3533;51.246;6.850;2022-12-18T11:27:40;18.80;32.00
6986;DHT22;3533;51.246;6.850;2022-12-18T11:32:48;18.80;31.80
6986;DHT22;3533;51.246;6.850;2022-12-18T11:35:44;18.90;31.90
6986;DHT22;3533;51.246;6.850;2022-12-18T11:38:29;18.90;31.90
6986;DHT22;3533;51.246;6.850;2022-12-18T11:41:21;18.90;32.70
6986;DHT22;3533;51.246;6.850;2022-12-18T11:44:13;18.90;31.80
6986;DHT22;3533;51.246;6.850;2022-12-18T11:46:47;18.90;31.90
6986;DHT22;3533;51.246;6.850;2022-12-18T11:49:41;18.90;31.90
6986;DHT22;3533;51.246;6.850;2022-12-18T11:52:16;18.90;31.90
6986;DHT22;3533;51.246;6.850;2022-12-18T11:54:43;18.90;32.00
6986;DHT22;3533;51.246;6.850;2022-12-18T11:57:30;18.90;32.10
6986;DHT22;3533;51.246;6.850;2022-12-18T12:00:13;18.90;31.90
6986;DHT22;3533;51.246;6.850;2022-12-18T12:03:15;18.90;31.90
6986;DHT22;3533;51.246;6.850;2022-12-18T12:08:44;18.90;31.90
6986;DHT22;3533;51.246;6.850;2022-12-18T12:11:34;18.90;31.90
6986;DHT22;3533;51.246;6.850;2022-12-18T12:14:07;18.90;31.90
6986;DHT22;3533;51.246;6.850;2022-12-18T12:22:23;18.90;32.00
6986;DHT22;3533;51.246;6.850;2022-12-18T12:25:18;18.90;32.00
6986;DHT22;3533;51.246;6.850;2022-12-18T12:30:30;18.90;32.00
6986;DHT22;3533;51.246;6.850;2022-12-18T12:33:22;18.90;31.90
6986;DHT22;3533;51.246;6.850;2022-12-18T12:38:47;18.90;31.90
6986;DHT22;3533;51.246;6.850;2022-12-18T12:41:18;18.90;32.00
6986;DHT22;3533;51.246;6.850;2022-12-18T12:44:07;18.90;32.00
6986;DHT22;3533;51.246;6.850;2022-12-18T12:46:36;18.90;32.00
6986;DHT22;3533;51.246;6.850;2022-12-18T12:49:17;18.90;31.90
6986;DHT22;3533;51.246;6.850;2022-12-18T12:51:47;18.90;32.00
6986;DHT22;3533;51.246;6.850;2022-12-18T12:54:20;18.90;32.00
6986;DHT22;3533;51.246;6.850;2022-12-18T12:59:37;18.90;32.10
6986;DHT22;3533;51.246;6.850;2022-12-18T13:05:53;18.90;31.90
6986;DHT22;3533;51.246;6.850;2022-12-18T13:08:28;18.90;32.70
6986;DHT22;3533;51.246;6.850;2022-12-18T13:10:56;18.90;32.00
6986;DHT22;3533;51.246;6.850;2022-12-18T13:13:55;18.90;32.10
6986;DHT22;3533;51.246;6.850;2022-12-18T13:16:23;18.90;32.00
6986;DHT22;3533;51.246;6.850;2022-12-18T13:18:54;18.90;32.10
6986;DHT22;3533;51.246;6.850;2022-12-18T13:23:50;18.90;32.20
6986;DHT22;3533;51.246;6.850;2022-12-18T13:34:22;18.80;32.20
6986;DHT22;3533;51.246;6.850;2022-12-18T13:36:49;18.80;32.30
6986;DHT22;3533;51.246;6.850;2022-12-18T13:41:45;18.80;32.30
6986;DHT22;3533;51.246;6.850;2022-12-18T13:44:28;18.80;32.30
6986;DHT22;3533;51.246;6.850;2022-12-18T13:46:56;18.70;32.20
6986;DHT22;3533;51.246;6.850;2022-12-18T13:51:57;18.80;32.20
6986;DHT22;3533;51.246;6.850;2022-12-18T13:57:01;18.70;32.10
6986;DHT22;3533;51.246;6.850;2022-12-18T13:59:38;18.70;32.10
6986;DHT22;3533;51.246;6.850;2022-12-18T14:02:17;18.80;32.20
6986;DHT22;3533;51.246;6.850;2022-12-18T14:04:46;18.70;32.00
6986;DHT22;3533;51.246;6.850;2022-12-18T14:07:18;18.70;32.10
6986;DHT22;3533;51.246;6.850;2022-12-18T14:10:00;18.70;32.00
6986;DHT22;3533;51.246;6.850;2022-12-18T14:12:31;18.70;31.90
6986;DHT22;3533;51.246;6.850;2022-12-18T14:20:43;18.70;32.00
6986;DHT22;3533;51.246;6.850;2022-12-18T14:23:38;18.70;32.00
6986;DHT22;3533;51.246;6.850;2022-12-18T14:26:26;18.70;32.00
6986;DHT22;3533;51.246;6.850;2022-12-18T14:28:58;18.70;32.00
6986;DHT22;3533;51.246;6.850;2022-12-18T14:31:28;18.70;32.00
6986;DHT22;3533;51.246;6.850;2022-12-18T14:33:54;18.70;32.00
6986;DHT22;3533;51.246;6.850;2022-12-18T14:36:25;18.70;32.00
6986;DHT22;3533;51.246;6.850;2022-12-18T14:38:56;18.70;32.00
6986;DHT22;3533;51.246;6.850;2022-12-18T14:41:22;18.70;32.00
6986;DHT22;3533;51.246;6.850;2022-12-18T14:43:50;18.70;32.90
6986;DHT22;3533;51.246;6.850;2022-12-18T14:49:03;18.70;31.90
6986;DHT22;3533;51.246;6.850;2022-12-18T14:51:33;18.70;32.00
6986;DHT22;3533;51.246;6.850;2022-12-18T14:54:01;18.70;32.10
6986;DHT22;3533;51.246;6.850;2022-12-18T14:56:32;18.70;32.10
6986;DHT22;3533;51.246;6.850;2022-12-18T14:59:04;18.70;32.00
6986;DHT22;3533;51.246;6.850;2022-12-18T15:01:34;18.70;32.00
6986;DHT22;3533;51.246;6.850;2022-12-18T15:04:01;18.70;32.00
6986;DHT22;3533;51.246;6.850;2022-12-18T15:06:30;18.70;32.00
6986;DHT22;3533;51.246;6.850;2022-12-18T15:08:58;18.70;32.00
6986;DHT22;3533;51.246;6.850;2022-12-18T15:11:43;18.70;32.10
6986;DHT22;3533;51.246;6.850;2022-12-18T15:16:59;18.70;32.10
6986;DHT22;3533;51.246;6.850;2022-12-18T15:19:43;18.70;32.10
6986;DHT22;3533;51.246;6.850;2022-12-18T15:22:29;18.70;32.30
6986;DHT22;3533;51.246;6.850;2022-12-18T15:24:57;18.70;32.30
6986;DHT22;3533;51.246;6.850;2022-12-18T15:27:30;18.70;32.20
6986;DHT22;3533;51.246;6.850;2022-12-18T15:32:37;18.70;32.30
6986;DHT22;3533;51.246;6.850;2022-12-18T15:37:34;18.60;32.20
6986;DHT22;3533;51.246;6.850;2022-12-18T15:39:59;18.70;32.40
6986;DHT22;3533;51.246;6.850;2022-12-18T15:42:25;18.60;32.40
6986;DHT22;3533;51.246;6.850;2022-12-18T15:45:13;18.60;32.30
6986;DHT22;3533;51.246;6.850;2022-12-18T15:47:39;18.70;32.40
6986;DHT22;3533;51.246;6.850;2022-12-18T15:50:05;18.60;32.30
6986;DHT22;3533;51.246;6.850;2022-12-18T15:52:39;18.60;32.40
6986;DHT22;3533;51.246;6.850;2022-12-18T15:55:16;18.60;32.30
6986;DHT22;3533;51.246;6.850;2022-12-18T15:58:01;18.60;32.40
6986;DHT22;3533;51.246;6.850;2022-12-18T16:00:27;18.60;32.40
6986;DHT22;3533;51.246;6.850;2022-12-18T16:02:52;18.60;32.40
6986;DHT22;3533;51.246;6.850;2022-12-18T16:05:19;18.60;32.20
6986;DHT22;3533;51.246;6.850;2022-12-18T16:07:46;18.60;32.20
6986;DHT22;3533;51.246;6.850;2022-12-18T16:10:12;18.60;32.00
6986;DHT22;3533;51.246;6.850;2022-12-18T16:12:38;18.60;32.00
6986;DHT22;3533;51.246;6.850;2022-12-18T16:15:05;18.70;32.10
6986;DHT22;3533;51.246;6.850;2022-12-18T16:17:31;18.70;32.00
6986;DHT22;3533;51.246;6.850;2022-12-18T16:19:56;18.60;32.00
6986;DHT22;3533;51.246;6.850;2022-12-18T16:22:25;18.70;32.00
6986;DHT22;3533;51.246;6.850;2022-12-18T16:24:52;18.60;31.90
6986;DHT22;3533;51.246;6.850;2022-12-18T16:27:19;18.70;32.10
6986;DHT22;3533;51.246;6.850;2022-12-18T16:29:45;18.60;32.10
6986;DHT22;3533;51.246;6.850;2022-12-18T16:32:14;18.60;32.00
6986;DHT22;3533;51.246;6.850;2022-12-18T16:34:40;18.60;32.10
6986;DHT22;3533;51.246;6.850;2022-12-18T16:37:08;18.60;32.00
6986;DHT22;3533;51.246;6.850;2022-12-18T16:39:34;18.60;32.10
6986;DHT22;3533;51.246;6.850;2022-12-18T16:42:15;18.70;32.10
6986;DHT22;3533;51.246;6.850;2022-12-18T16:44:43;18.60;32.00
6986;DHT22;3533;51.246;6.850;2022-12-18T16:47:09;18.60;32.00
6986;DHT22;3533;51.246;6.850;2022-12-18T16:49:34;18.70;32.10
6986;DHT22;3533;51.246;6.850;2022-12-18T16:52:00;18.60;32.00
6986;DHT22;3533;51.246;6.850;2022-12-18T16:54:25;18.70;32.10
6986;DHT22;3533;51.246;6.850;2022-12-18T16:56:54;18.70;32.10
6986;DHT22;3533;51.246;6.850;2022-12-18T16:59:20;18.70;32.00
6986;DHT22;3533;51.246;6.850;2022-12-18T17:01:46;18.70;31.90
6986;DHT22;3533;51.246;6.850;2022-12-18T17:04:11;18.70;31.90
6986;DHT22;3533;51.246;6.850;2022-12-18T17:06:43;18.70;31.80
6986;DHT22;3533;51.246;6.850;2022-12-18T17:09:13;18.80;31.90
6986;DHT22;3533;51.246;6.850;2022-12-18T17:11:39;18.70;31.80
6986;DHT22;3533;51.246;6.850;2022-12-18T17:14:11;18.70;31.80
6986;DHT22;3533;51.246;6.850;2022-12-18T17:16:37;18.80;31.80
6986;DHT22;3533;51.246;6.850;2022-12-18T17:19:03;18.80;31.80
6986;DHT22;3533;51.246;6.850;2022-12-18T17:21:29;18.80;31.80
6986;DHT22;3533;51.246;6.850;2022-12-18T17:23:55;18.80;31.90
6986;DHT22;3533;51.246;6.850;2022-12-18T17:26:20;18.80;31.90
6986;DHT22;3533;51.246;6.850;2022-12-18T17:28:46;18.70;31.80
6986;DHT22;3533;51.246;6.850;2022-12-18T17:31:20;18.70;31.80
6986;DHT22;3533;51.246;6.850;2022-12-18T17:33:46;18.70;31.90
6986;DHT22;3533;51.246;6.850;2022-12-18T17:36:12;18.70;32.00
6986;DHT22;3533;51.246;6.850;2022-12-18T17:38:38;18.70;32.00
6986;DHT22;3533;51.246;6.850;2022-12-18T17:41:05;18.70;32.00
6986;DHT22;3533;51.246;6.850;2022-12-18T17:43:31;18.80;32.00
6986;DHT22;3533;51.246;6.850;2022-12-18T17:46:04;18.70;32.00
6986;DHT22;3533;51.246;6.850;2022-12-18T17:48:29;18.70;32.00
6986;DHT22;3533;51.246;6.850;2022-12-18T17:51:03;18.70;32.00
6986;DHT22;3533;51.246;6.850;2022-12-18T17:53:29;18.70;32.00